Time;durP1;ratioP1;P1;durP2;ratioP2;P2;SDS_P1;SDS_P2;PMS_P1;PMS_P2;Temp;Humidity;BMP_temperature;BMP_pressure;BME280_temperature;BME280_humidity;BME280_pressure;Samples;Min_cycle;Max_cycle;Signal;HPM_P1;HPM_P2
2021/09/20 00:00:33;;;;;;;2.88;2.60;;;;;;;;;;4681977;30;20660;-81
2021/09/20 00:03:01;;;;;;;3.40;2.83;;;;;;;;;;4682258;30;20199;-81
2021/09/20 00:05:29;;;;;;;2.90;2.70;;;;;;;;;;4682109;30;20215;-81
2021/09/20 00:07:56;;;;;;;2.60;2.40;;;;;;;;;;4682120;30;20246;-81
2021/09/20 00:10:24;;;;;;;2.78;2.58;;;;;;;;;;4681922;30;20214;-81
2021/09/20 00:12:51;;;;;;;2.70;2.50;;;;;;;;;;4681820;30;20656;-81
2021/09/20 00:15:20;;;;;;;3.47;2.60;;;;;;;;;;4681546;30;20221;-81
2021/09/20 00:17:48;;;;;;;3.13;2.55;;;;;;;;;;4681697;30;20235;-81
2021/09/20 00:20:16;;;;;;;3.30;3.00;;;;;;;;;;4682044;30;20206;-81
2021/09/20 00:22:44;;;;;;;3.50;2.70;;;;;;;;;;4681833;30;20200;-81
2021/09/20 00:25:13;;;;;;;2.65;2.45;;;;;;;;;;4682037;30;20210;-81
2021/09/20 00:27:40;;;;;;;2.58;2.38;;;;;;;;;;4681745;30;20234;-82
2021/09/20 00:30:10;;;;;;;2.83;2.63;;;;;;;;;;4681939;30;20211;-82
2021/09/20 00:32:39;;;;;;;2.67;2.47;;;;;;;;;;4681408;30;20235;-82
2021/09/20 00:35:09;;;;;;;2.55;2.35;;;;;;;;;;4681701;30;20750;-82
2021/09/20 00:37:36;;;;;;;3.28;2.85;;;;;;;;;;4681656;30;20234;-82
2021/09/20 00:40:06;;;;;;;3.75;2.60;;;;;;;;;;4681569;30;20630;-82
2021/09/20 00:42:33;;;;;;;2.53;2.33;;;;;;;;;;4681780;30;20195;-82
2021/09/20 00:45:00;;;;;;;3.30;2.97;;;;;;;;;;4681634;30;20234;-82
2021/09/20 00:47:28;;;;;;;2.95;2.75;;;;;;;;;;4681895;30;20235;-82
2021/09/20 00:49:57;;;;;;;4.45;3.00;;;;;;;;;;4681882;30;20223;-82
2021/09/20 00:52:24;;;;;;;2.60;2.40;;;;;;;;;;4681664;30;20235;-82
2021/09/20 00:54:52;;;;;;;3.80;3.00;;;;;;;;;;4681454;30;20215;-82
2021/09/20 00:57:20;;;;;;;3.67;2.63;;;;;;;;;;4681434;30;20643;-81
2021/09/20 00:59:47;;;;;;;4.55;2.40;;;;;;;;;;4681482;30;20680;-82
2021/09/20 01:02:15;;;;;;;3.22;2.92;;;;;;;;;;4681474;30;20626;-82
2021/09/20 01:04:42;;;;;;;3.03;2.72;;;;;;;;;;4681767;30;20211;-82
2021/09/20 01:07:11;;;;;;;2.63;2.35;;;;;;;;;;4681232;30;20235;-82
2021/09/20 01:09:40;;;;;;;3.45;2.70;;;;;;;;;;4681601;30;20200;-82
2021/09/20 01:12:09;;;;;;;2.83;2.63;;;;;;;;;;4682619;30;20715;-82
2021/09/20 01:14:36;;;;;;;2.88;2.50;;;;;;;;;;4684870;30;20209;-81
2021/09/20 01:17:04;;;;;;;2.67;2.47;;;;;;;;;;4684744;30;20239;-82
2021/09/20 01:19:32;;;;;;;2.53;2.33;;;;;;;;;;4684781;30;20203;-82
2021/09/20 01:22:04;;;;;;;2.45;2.35;;;;;;;;;;4684933;30;20282;-82
2021/09/20 01:24:33;;;;;;;2.60;2.40;;;;;;;;;;4684683;30;20222;-81
2021/09/20 01:27:02;;;;;;;3.08;2.78;;;;;;;;;;4684476;30;20372;-81
2021/09/20 01:29:30;;;;;;;2.50;2.30;;;;;;;;;;4684556;30;20211;-82
2021/09/20 01:31:58;;;;;;;3.00;2.80;;;;;;;;;;4684681;30;20246;-81
2021/09/20 01:34:26;;;;;;;2.35;2.15;;;;;;;;;;4684641;30;20204;-82
2021/09/20 01:36:54;;;;;;;2.72;2.53;;;;;;;;;;4684306;30;20232;-82
2021/09/20 01:39:25;;;;;;;3.38;3.08;;;;;;;;;;4684201;30;20239;-82
2021/09/20 01:41:55;;;;;;;3.60;2.60;;;;;;;;;;4684381;30;20206;-82
2021/09/20 01:44:23;;;;;;;2.65;2.45;;;;;;;;;;4684398;30;20261;-81
2021/09/20 01:46:53;;;;;;;3.63;3.33;;;;;;;;;;4684323;30;20614;-82
2021/09/20 01:49:21;;;;;;;2.42;2.22;;;;;;;;;;4684058;30;20679;-82
2021/09/20 01:51:50;;;;;;;3.60;2.78;;;;;;;;;;4684072;30;20239;-81
2021/09/20 01:54:17;;;;;;;2.72;2.53;;;;;;;;;;4684289;30;20207;-82
2021/09/20 01:56:45;;;;;;;3.30;2.80;;;;;;;;;;4684019;30;20227;-82
2021/09/20 01:59:13;;;;;;;2.75;2.35;;;;;;;;;;4684072;30;20211;-82
2021/09/20 02:01:41;;;;;;;3.30;3.00;;;;;;;;;;4684058;30;20556;-81
2021/09/20 02:04:09;;;;;;;2.88;2.60;;;;;;;;;;4684117;30;20208;-82
2021/09/20 02:06:36;;;;;;;2.35;2.15;;;;;;;;;;4683733;30;20202;-81
2021/09/20 02:09:06;;;;;;;3.33;3.13;;;;;;;;;;4683676;30;20676;-81
2021/09/20 02:11:34;;;;;;;3.25;2.95;;;;;;;;;;4683624;30;20246;-81
2021/09/20 02:14:01;;;;;;;2.20;2.00;;;;;;;;;;4683873;30;20613;-81
2021/09/20 02:16:30;;;;;;;3.53;3.22;;;;;;;;;;4683954;30;20214;-81
2021/09/20 02:18:58;;;;;;;3.40;2.85;;;;;;;;;;4683737;30;20240;-81
2021/09/20 02:21:27;;;;;;;2.92;2.72;;;;;;;;;;4683889;30;20215;-81
2021/09/20 02:23:54;;;;;;;3.05;2.75;;;;;;;;;;4682684;30;20214;-82
2021/09/20 02:26:22;;;;;;;3.50;3.20;;;;;;;;;;4683510;30;20195;-81
2021/09/20 02:28:49;;;;;;;3.08;2.88;;;;;;;;;;4683581;30;20254;-81
2021/09/20 02:31:17;;;;;;;5.32;2.67;;;;;;;;;;4683366;30;20222;-82
2021/09/20 02:33:46;;;;;;;3.67;2.83;;;;;;;;;;4683666;30;20220;-81
2021/09/20 02:36:13;;;;;;;2.45;2.25;;;;;;;;;;4683463;30;20215;-81
2021/09/20 02:38:41;;;;;;;2.90;2.70;;;;;;;;;;4683194;30;20231;-81
2021/09/20 02:41:09;;;;;;;2.22;2.03;;;;;;;;;;4683498;30;20207;-81
2021/09/20 02:43:36;;;;;;;3.10;2.83;;;;;;;;;;4683307;30;20668;-81
2021/09/20 02:46:04;;;;;;;2.95;2.65;;;;;;;;;;4683228;30;20704;-82
2021/09/20 02:48:32;;;;;;;3.35;3.05;;;;;;;;;;4683331;30;20242;-81
2021/09/20 02:51:02;;;;;;;2.65;2.45;;;;;;;;;;4683283;30;20196;-81
2021/09/20 02:53:30;;;;;;;3.13;2.70;;;;;;;;;;4683240;30;20237;-82
2021/09/20 02:55:58;;;;;;;2.83;2.63;;;;;;;;;;4683255;30;20192;-82
2021/09/20 02:58:26;;;;;;;2.72;2.53;;;;;;;;;;4682938;30;20227;-82
2021/09/20 03:00:54;;;;;;;3.28;2.97;;;;;;;;;;4682464;30;20211;-82
2021/09/20 03:03:21;;;;;;;3.03;2.78;;;;;;;;;;4682396;30;20208;-81
2021/09/20 03:05:49;;;;;;;2.55;2.35;;;;;;;;;;4682682;30;20692;-82
2021/09/20 03:08:18;;;;;;;2.60;2.40;;;;;;;;;;4682899;30;20249;-81
2021/09/20 03:10:46;;;;;;;3.15;2.85;;;;;;;;;;4682842;30;20228;-81
2021/09/20 03:13:13;;;;;;;2.40;2.20;;;;;;;;;;4682669;30;20220;-81
2021/09/20 03:15:41;;;;;;;2.95;2.70;;;;;;;;;;4682631;30;20199;-81
2021/09/20 03:18:09;;;;;;;3.33;3.03;;;;;;;;;;4682890;30;20353;-81
2021/09/20 03:20:36;;;;;;;2.63;2.42;;;;;;;;;;4682756;30;20215;-82
2021/09/20 03:23:04;;;;;;;2.75;2.55;;;;;;;;;;4682592;30;20235;-81
2021/09/20 03:25:33;;;;;;;2.60;2.40;;;;;;;;;;4682609;30;20188;-81
2021/09/20 03:28:00;;;;;;;3.10;2.70;;;;;;;;;;4682516;30;20727;-81
2021/09/20 03:30:28;;;;;;;2.13;2.03;;;;;;;;;;4682604;30;20222;-81
2021/09/20 03:32:55;;;;;;;2.53;2.28;;;;;;;;;;4682263;30;20228;-81
2021/09/20 03:35:23;;;;;;;4.60;2.45;;;;;;;;;;4682274;30;20255;-81
2021/09/20 03:37:50;;;;;;;2.88;2.67;;;;;;;;;;4682416;30;20247;-81
2021/09/20 03:40:19;;;;;;;2.83;2.50;;;;;;;;;;4682106;30;20246;-81
2021/09/20 03:42:48;;;;;;;2.63;2.42;;;;;;;;;;4682421;30;20221;-81
2021/09/20 03:45:17;;;;;;;3.83;3.50;;;;;;;;;;4682440;30;20210;-81
2021/09/20 03:47:45;;;;;;;2.50;2.30;;;;;;;;;;4693894;30;20338;-82
2021/09/20 03:50:13;;;;;;;2.63;2.42;;;;;;;;;;4699198;30;20228;-82
2021/09/20 03:52:41;;;;;;;2.42;2.22;;;;;;;;;;4699553;30;20680;-82
2021/09/20 03:55:11;;;;;;;3.03;2.60;;;;;;;;;;4697562;30;20195;-82
2021/09/20 03:57:38;;;;;;;2.25;2.08;;;;;;;;;;4682285;30;20238;-82
2021/09/20 04:00:09;;;;;;;2.50;2.30;;;;;;;;;;4682025;30;20215;-82
2021/09/20 04:02:37;;;;;;;3.63;3.30;;;;;;;;;;4682276;30;20203;-82
2021/09/20 04:05:06;;;;;;;2.50;2.33;;;;;;;;;;4682056;30;20649;-82
2021/09/20 04:07:33;;;;;;;2.95;2.72;;;;;;;;;;4682150;30;20231;-81
2021/09/20 04:10:01;;;;;;;2.17;1.98;;;;;;;;;;4682176;30;20630;-82
2021/09/20 04:12:29;;;;;;;2.78;2.58;;;;;;;;;;4682127;30;20215;-82
2021/09/20 04:14:56;;;;;;;2.50;2.10;;;;;;;;;;4682127;30;20727;-81
2021/09/20 04:17:25;;;;;;;2.88;2.63;;;;;;;;;;4699280;30;20242;-81
2021/09/20 04:19:52;;;;;;;1.95;1.85;;;;;;;;;;4699151;30;20229;-81
2021/09/20 04:22:20;;;;;;;2.08;1.98;;;;;;;;;;4698814;30;20220;-82
2021/09/20 04:24:47;;;;;;;2.03;1.92;;;;;;;;;;4699064;30;20315;-82
2021/09/20 04:27:15;;;;;;;1.70;1.60;;;;;;;;;;4691341;30;20231;-82
2021/09/20 04:29:42;;;;;;;1.50;1.40;;;;;;;;;;4681963;30;20230;-82
2021/09/20 04:32:10;;;;;;;1.75;1.65;;;;;;;;;;4698047;30;20233;-81
2021/09/20 04:34:39;;;;;;;1.60;1.50;;;;;;;;;;4696328;30;20599;-82
2021/09/20 04:37:06;;;;;;;1.52;1.42;;;;;;;;;;4698879;30;20738;-81
2021/09/20 04:39:33;;;;;;;2.05;1.90;;;;;;;;;;4698921;30;20249;-81
2021/09/20 04:42:02;;;;;;;2.05;1.95;;;;;;;;;;4699206;30;20210;-81
2021/09/20 04:44:30;;;;;;;2.15;1.95;;;;;;;;;;4699059;30;20214;-82
2021/09/20 04:46:57;;;;;;;2.35;2.25;;;;;;;;;;4700059;30;20710;-82
2021/09/20 04:49:24;;;;;;;1.58;1.48;;;;;;;;;;4705355;30;20216;-81
2021/09/20 04:51:53;;;;;;;2.05;1.90;;;;;;;;;;4702070;30;20225;-81
2021/09/20 04:54:21;;;;;;;2.78;2.58;;;;;;;;;;4699309;30;20593;-82
2021/09/20 04:56:48;;;;;;;1.65;1.55;;;;;;;;;;4685219;30;20200;-81
2021/09/20 04:59:16;;;;;;;2.20;2.00;;;;;;;;;;4685272;30;20206;-81
2021/09/20 05:01:43;;;;;;;1.70;1.60;;;;;;;;;;4684810;30;20211;-81
2021/09/20 05:04:11;;;;;;;2.40;2.20;;;;;;;;;;4684742;30;20199;-81
2021/09/20 05:06:38;;;;;;;2.15;1.95;;;;;;;;;;4685054;30;20203;-81
2021/09/20 05:09:09;;;;;;;2.75;2.55;;;;;;;;;;4699918;30;20202;-81
2021/09/20 05:11:37;;;;;;;2.75;2.55;;;;;;;;;;4718107;30;20646;-81
2021/09/20 05:14:04;;;;;;;2.60;2.40;;;;;;;;;;4715983;30;20253;-81
2021/09/20 05:16:32;;;;;;;2.33;2.17;;;;;;;;;;4706308;30;20203;-82
2021/09/20 05:19:00;;;;;;;2.45;2.28;;;;;;;;;;4702029;30;20203;-82
2021/09/20 05:21:38;;;;;;;2.40;2.20;;;;;;;;;;4703045;30;20311;-83
2021/09/20 05:24:08;;;;;;;3.22;2.30;;;;;;;;;;4699570;30;20230;-82
2021/09/20 05:26:35;;;;;;;1.75;1.65;;;;;;;;;;4702746;30;20214;-80
2021/09/20 05:29:03;;;;;;;2.00;1.90;;;;;;;;;;4697478;30;20207;-81
2021/09/20 05:31:31;;;;;;;3.03;2.17;;;;;;;;;;4701873;30;20230;-82
2021/09/20 05:33:58;;;;;;;1.90;1.80;;;;;;;;;;4701165;30;20223;-81
2021/09/20 05:36:25;;;;;;;3.63;2.50;;;;;;;;;;4701459;30;20216;-82
2021/09/20 05:38:53;;;;;;;2.30;2.10;;;;;;;;;;4698362;30;20235;-80
2021/09/20 05:41:22;;;;;;;3.13;2.83;;;;;;;;;;4708371;30;20202;-81
2021/09/20 05:43:50;;;;;;;3.40;2.92;;;;;;;;;;4711630;30;20211;-82
2021/09/20 05:46:18;;;;;;;4.47;2.28;;;;;;;;;;4702945;30;20206;-81
2021/09/20 05:48:54;;;;;;;2.63;2.13;;;;;;;;;;4697891;30;20278;-81
2021/09/20 05:51:33;;;;;;;2.53;2.33;;;;;;;;;;4698930;30;20221;-81
2021/09/20 05:54:00;;;;;;;2.35;2.15;;;;;;;;;;4701128;30;20230;-82
2021/09/20 05:56:29;;;;;;;2.78;2.35;;;;;;;;;;4701694;30;20579;-81
2021/09/20 05:58:57;;;;;;;1.98;1.88;;;;;;;;;;4701167;30;20281;-81
2021/09/20 06:01:24;;;;;;;2.15;2.00;;;;;;;;;;4701005;30;20281;-81
2021/09/20 06:03:52;;;;;;;1.85;1.75;;;;;;;;;;4700394;30;20202;-81
2021/09/20 06:06:19;;;;;;;2.50;2.30;;;;;;;;;;4701463;30;20215;-83
2021/09/20 06:08:46;;;;;;;2.17;2.08;;;;;;;;;;4702023;30;20241;-81
2021/09/20 06:11:15;;;;;;;2.20;2.08;;;;;;;;;;4701770;30;20229;-80
2021/09/20 06:13:44;;;;;;;2.03;1.90;;;;;;;;;;4701518;30;20594;-82
2021/09/20 06:16:12;;;;;;;2.58;2.30;;;;;;;;;;4700817;30;20320;-82
2021/09/20 06:18:39;;;;;;;2.50;2.30;;;;;;;;;;4700712;30;20245;-81
2021/09/20 06:21:06;;;;;;;1.90;1.80;;;;;;;;;;4700803;30;20215;-81
2021/09/20 06:23:34;;;;;;;2.10;1.88;;;;;;;;;;4700506;30;20674;-82
2021/09/20 06:26:01;;;;;;;2.22;2.03;;;;;;;;;;4700844;30;20194;-81
2021/09/20 06:28:29;;;;;;;2.30;2.20;;;;;;;;;;4700406;30;20239;-81
2021/09/20 06:31:02;;;;;;;2.38;2.17;;;;;;;;;;4700838;30;20202;-82
2021/09/20 06:33:30;;;;;;;2.30;2.13;;;;;;;;;;4700833;30;20220;-82
2021/09/20 06:35:57;;;;;;;2.25;2.05;;;;;;;;;;4700990;30;20219;-82
2021/09/20 06:38:24;;;;;;;1.95;1.85;;;;;;;;;;4700806;30;20246;-82
2021/09/20 06:40:52;;;;;;;2.10;1.90;;;;;;;;;;4700269;30;20738;-81
2021/09/20 06:43:20;;;;;;;2.42;2.22;;;;;;;;;;4700616;30;20695;-81
2021/09/20 06:45:48;;;;;;;2.05;1.90;;;;;;;;;;4700646;30;20198;-81
2021/09/20 06:48:16;;;;;;;2.13;2.00;;;;;;;;;;4700740;30;20613;-81
2021/09/20 06:50:44;;;;;;;2.85;2.65;;;;;;;;;;4700662;30;20202;-81
2021/09/20 06:53:11;;;;;;;2.30;2.10;;;;;;;;;;4701990;30;20674;-81
2021/09/20 06:55:39;;;;;;;2.70;2.17;;;;;;;;;;4700064;30;20227;-81
2021/09/20 06:58:06;;;;;;;2.75;2.55;;;;;;;;;;4700060;30;20343;-81
2021/09/20 07:00:34;;;;;;;2.50;2.30;;;;;;;;;;4700620;30;20225;-82
2021/09/20 07:03:02;;;;;;;2.30;2.10;;;;;;;;;;4687937;30;20293;-82
2021/09/20 07:05:30;;;;;;;2.42;2.22;;;;;;;;;;4682544;30;20207;-81
2021/09/20 07:08:00;;;;;;;1.75;1.65;;;;;;;;;;4682942;30;20242;-82
2021/09/20 07:10:28;;;;;;;2.03;1.92;;;;;;;;;;4682684;30;20294;-81
2021/09/20 07:12:57;;;;;;;1.90;1.80;;;;;;;;;;4699376;30;20294;-81
2021/09/20 07:15:25;;;;;;;2.45;2.25;;;;;;;;;;4699800;30;20229;-81
2021/09/20 07:17:52;;;;;;;2.55;2.35;;;;;;;;;;4700034;30;20241;-80
2021/09/20 07:20:19;;;;;;;1.70;1.60;;;;;;;;;;4691089;30;20218;-81
2021/09/20 07:22:48;;;;;;;1.98;1.88;;;;;;;;;;4684297;30;20215;-82
2021/09/20 07:25:16;;;;;;;2.00;1.90;;;;;;;;;;4700123;30;20215;-82
2021/09/20 07:27:43;;;;;;;2.20;2.10;;;;;;;;;;4699685;30;20231;-82
2021/09/20 07:30:17;;;;;;;2.67;2.40;;;;;;;;;;4697173;30;20704;-83
2021/09/20 07:32:44;;;;;;;2.13;1.92;;;;;;;;;;4699658;30;20604;-81
2021/09/20 07:35:16;;;;;;;2.50;2.30;;;;;;;;;;4687951;30;20596;-82
2021/09/20 07:37:44;;;;;;;2.13;2.00;;;;;;;;;;4697259;30;20310;-81
2021/09/20 07:40:15;;;;;;;2.00;1.90;;;;;;;;;;4698291;30;20235;-81
2021/09/20 07:42:43;;;;;;;3.17;2.63;;;;;;;;;;4698921;30;20206;-82
2021/09/20 07:45:12;;;;;;;3.13;2.88;;;;;;;;;;4697613;30;20659;-81
2021/09/20 07:47:39;;;;;;;2.95;2.75;;;;;;;;;;4699487;30;20707;-81
2021/09/20 07:50:09;;;;;;;2.20;2.03;;;;;;;;;;4697081;30;20221;-81
2021/09/20 07:52:36;;;;;;;2.20;2.00;;;;;;;;;;4682146;30;20213;-83
2021/09/20 07:55:06;;;;;;;2.60;2.40;;;;;;;;;;4699256;30;20214;-81
2021/09/20 07:57:35;;;;;;;2.85;2.08;;;;;;;;;;4681690;30;20754;-82
2021/09/20 08:00:08;;;;;;;1.98;1.83;;;;;;;;;;4682134;30;20713;-82
2021/09/20 08:02:35;;;;;;;2.08;1.92;;;;;;;;;;4681984;30;20221;-81
2021/09/20 08:05:03;;;;;;;2.55;2.35;;;;;;;;;;4685581;30;20214;-83
2021/09/20 08:07:30;;;;;;;2.17;1.98;;;;;;;;;;4682225;30;20235;-81
2021/09/20 08:09:58;;;;;;;1.83;1.73;;;;;;;;;;4691752;30;20215;-81
2021/09/20 08:12:25;;;;;;;2.47;2.33;;;;;;;;;;4699176;30;20202;-82
2021/09/20 08:14:54;;;;;;;2.88;2.67;;;;;;;;;;4699055;30;20203;-82
2021/09/20 08:17:22;;;;;;;2.65;2.45;;;;;;;;;;4699392;30;20249;-81
2021/09/20 08:19:49;;;;;;;2.50;2.30;;;;;;;;;;4698211;30;20223;-82
2021/09/20 08:22:16;;;;;;;2.08;1.98;;;;;;;;;;4698143;30;20210;-81
2021/09/20 08:24:44;;;;;;;3.15;2.85;;;;;;;;;;4698184;30;20214;-81
2021/09/20 08:27:11;;;;;;;2.67;2.47;;;;;;;;;;4697808;30;20222;-81
2021/09/20 08:29:40;;;;;;;2.50;2.30;;;;;;;;;;4698997;30;20203;-81
2021/09/20 08:32:09;;;;;;;3.63;2.60;;;;;;;;;;4698956;30;20687;-81
2021/09/20 08:34:37;;;;;;;3.42;2.50;;;;;;;;;;4684626;30;20212;-81
2021/09/20 08:37:05;;;;;;;3.03;2.70;;;;;;;;;;4681524;30;20738;-81
2021/09/20 08:39:33;;;;;;;3.95;3.33;;;;;;;;;;4681531;30;20235;-81
2021/09/20 08:42:01;;;;;;;3.38;3.05;;;;;;;;;;4686438;30;20217;-81
2021/09/20 08:44:28;;;;;;;3.75;3.45;;;;;;;;;;4698237;30;20225;-81
2021/09/20 08:46:57;;;;;;;3.53;3.10;;;;;;;;;;4698608;30;20615;-81
2021/09/20 08:49:28;;;;;;;3.53;3.22;;;;;;;;;;4698522;30;20222;-81
2021/09/20 08:51:58;;;;;;;2.58;2.38;;;;;;;;;;4699006;30;20198;-81
2021/09/20 08:54:27;;;;;;;2.90;2.58;;;;;;;;;;4698715;30;20638;-81
2021/09/20 08:56:55;;;;;;;2.80;2.55;;;;;;;;;;4698659;30;21128;-82
2021/09/20 08:59:23;;;;;;;3.70;2.65;;;;;;;;;;4698959;30;20191;-83
2021/09/20 09:01:53;;;;;;;3.03;2.20;;;;;;;;;;4698997;30;20210;-81
2021/09/20 09:04:31;;;;;;;2.40;2.20;;;;;;;;;;4698760;30;20205;-81
2021/09/20 09:07:04;;;;;;;1.85;1.75;;;;;;;;;;4698927;30;20234;-81
2021/09/20 09:09:34;;;;;;;3.42;2.20;;;;;;;;;;4688443;30;20204;-82
2021/09/20 09:12:15;;;;;;;2.20;2.00;;;;;;;;;;4681592;30;20208;-81
2021/09/20 09:14:46;;;;;;;2.35;2.15;;;;;;;;;;4695907;30;20583;-81
2021/09/20 09:17:17;;;;;;;3.42;2.45;;;;;;;;;;4697743;30;20249;-82
2021/09/20 09:19:54;;;;;;;2.88;2.60;;;;;;;;;;4695115;30;20699;-81
2021/09/20 09:22:23;;;;;;;3.35;3.03;;;;;;;;;;4695288;30;20313;-82
2021/09/20 09:25:10;;;;;;;1.90;1.80;;;;;;;;;;4695569;30;20265;-82
2021/09/20 09:27:38;;;;;;;2.47;2.20;;;;;;;;;;4695556;30;20246;-82
2021/09/20 09:30:12;;;;;;;2.20;2.00;;;;;;;;;;4695583;30;20229;-82
2021/09/20 09:32:41;;;;;;;2.30;2.10;;;;;;;;;;4695957;30;20215;-82
2021/09/20 09:35:12;;;;;;;2.50;2.30;;;;;;;;;;4698605;30;20219;-81
2021/09/20 09:37:42;;;;;;;2.53;2.35;;;;;;;;;;4698608;30;20249;-81
2021/09/20 09:40:16;;;;;;;2.45;2.25;;;;;;;;;;4698534;30;20249;-82
2021/09/20 09:42:44;;;;;;;2.53;2.10;;;;;;;;;;4698471;30;20222;-81
2021/09/20 09:45:30;;;;;;;2.45;1.70;;;;;;;;;;4698461;30;20553;-81
2021/09/20 09:48:14;;;;;;;1.60;1.50;;;;;;;;;;4698610;30;20234;-81
2021/09/20 09:50:49;;;;;;;2.65;1.70;;;;;;;;;;4698429;30;20687;-82
2021/09/20 09:53:26;;;;;;;2.85;1.70;;;;;;;;;;4698335;30;20206;-81
2021/09/20 09:55:56;;;;;;;3.58;1.70;;;;;;;;;;4698143;30;20636;-82
2021/09/20 09:58:25;;;;;;;1.95;1.85;;;;;;;;;;4698250;30;20249;-82
2021/09/20 10:00:53;;;;;;;2.95;2.13;;;;;;;;;;4698427;30;20219;-82
2021/09/20 10:03:20;;;;;;;2.03;1.92;;;;;;;;;;4698144;30;20218;-82
2021/09/20 10:06:07;;;;;;;2.38;2.05;;;;;;;;;;4698317;30;20218;-82
2021/09/20 10:08:34;;;;;;;2.42;2.15;;;;;;;;;;4697993;30;20817;-82
2021/09/20 10:11:02;;;;;;;1.95;1.85;;;;;;;;;;4698187;30;20219;-82
2021/09/20 10:13:30;;;;;;;1.67;1.58;;;;;;;;;;4697893;30;20233;-82
2021/09/20 10:15:57;;;;;;;2.10;1.85;;;;;;;;;;4698033;30;20211;-82
2021/09/20 10:18:26;;;;;;;2.85;2.63;;;;;;;;;;4697846;30;20242;-82
2021/09/20 10:20:54;;;;;;;1.73;1.63;;;;;;;;;;4698188;30;20249;-82
2021/09/20 10:23:23;;;;;;;3.53;3.08;;;;;;;;;;4699410;30;20227;-82
2021/09/20 10:25:50;;;;;;;1.88;1.77;;;;;;;;;;4697966;30;20233;-81
2021/09/20 10:28:18;;;;;;;3.38;2.70;;;;;;;;;;4697883;30;20234;-83
2021/09/20 10:30:46;;;;;;;3.47;2.30;;;;;;;;;;4697728;30;20222;-82
2021/09/20 10:33:14;;;;;;;2.45;2.28;;;;;;;;;;4698021;30;20683;-83
2021/09/20 10:35:43;;;;;;;2.10;2.00;;;;;;;;;;4698260;30;20307;-82
2021/09/20 10:38:30;;;;;;;2.78;2.58;;;;;;;;;;4697430;30;20238;-81
2021/09/20 10:41:11;;;;;;;2.08;1.98;;;;;;;;;;4697410;30;20333;-81
2021/09/20 10:43:40;;;;;;;2.20;1.95;;;;;;;;;;4698206;30;20249;-83
2021/09/20 10:46:21;;;;;;;2.20;2.00;;;;;;;;;;4697116;30;20218;-82
2021/09/20 10:48:55;;;;;;;1.95;1.80;;;;;;;;;;4697512;30;20238;-81
2021/09/20 10:51:26;;;;;;;2.28;2.05;;;;;;;;;;4697558;30;20210;-82
2021/09/20 10:54:19;;;;;;;2.58;2.35;;;;;;;;;;4697520;30;20321;-82
2021/09/20 10:56:52;;;;;;;1.85;1.75;;;;;;;;;;4696072;30;20225;-83
2021/09/20 10:59:28;;;;;;;3.05;2.05;;;;;;;;;;4696443;30;20233;-82
2021/09/20 11:01:59;;;;;;;2.00;1.90;;;;;;;;;;4697238;30;20311;-82
2021/09/20 11:04:31;;;;;;;3.38;2.38;;;;;;;;;;4683994;30;20225;-82
2021/09/20 11:07:08;;;;;;;1.80;1.70;;;;;;;;;;4679673;30;20247;-82
2021/09/20 11:10:04;;;;;;;2.33;2.10;;;;;;;;;;4680212;30;20222;-82
2021/09/20 11:12:34;;;;;;;2.10;2.00;;;;;;;;;;4679909;30;20222;-81
2021/09/20 11:15:13;;;;;;;1.98;1.88;;;;;;;;;;4680012;30;20223;-81
2021/09/20 11:17:48;;;;;;;1.67;1.58;;;;;;;;;;4679941;30;20242;-82
2021/09/20 11:20:36;;;;;;;2.85;2.65;;;;;;;;;;4679851;30;20218;-82
2021/09/20 11:23:28;;;;;;;1.95;1.85;;;;;;;;;;4679590;30;20572;-81
2021/09/20 11:26:21;;;;;;;4.28;2.33;;;;;;;;;;4679920;30;20238;-82
2021/09/20 11:28:54;;;;;;;3.17;2.72;;;;;;;;;;4679509;30;20235;-82
2021/09/20 11:31:29;;;;;;;1.88;1.77;;;;;;;;;;4679732;30;20230;-82
2021/09/20 11:33:56;;;;;;;2.38;2.17;;;;;;;;;;4679444;30;20238;-82
2021/09/20 11:36:29;;;;;;;2.30;2.13;;;;;;;;;;4679592;30;20219;-83
2021/09/20 11:39:17;;;;;;;1.65;1.55;;;;;;;;;;4679288;30;20249;-83
2021/09/20 11:41:49;;;;;;;1.90;1.80;;;;;;;;;;4679747;30;20295;-82
2021/09/20 11:44:17;;;;;;;1.75;1.65;;;;;;;;;;4691166;30;20214;-81
2021/09/20 11:46:46;;;;;;;1.60;1.50;;;;;;;;;;4696291;30;20222;-82
2021/09/20 11:49:16;;;;;;;2.08;1.70;;;;;;;;;;4696450;30;20214;-81
2021/09/20 11:51:43;;;;;;;2.20;2.00;;;;;;;;;;4696764;30;20218;-82
2021/09/20 11:54:29;;;;;;;2.42;1.90;;;;;;;;;;4696313;30;20210;-82
2021/09/20 11:57:20;;;;;;;1.83;1.73;;;;;;;;;;4696099;30;20244;-81
2021/09/20 11:59:48;;;;;;;1.85;1.75;;;;;;;;;;4696398;30;20214;-81
2021/09/20 12:02:38;;;;;;;2.95;1.90;;;;;;;;;;4696356;30;20222;-81
2021/09/20 12:05:08;;;;;;;1.50;1.40;;;;;;;;;;4679007;30;20243;-81
2021/09/20 12:07:45;;;;;;;1.98;1.77;;;;;;;;;;4679146;30;20239;-81
2021/09/20 12:10:13;;;;;;;1.80;1.67;;;;;;;;;;4679067;30;20695;-81
2021/09/20 12:12:42;;;;;;;1.17;1.17;;;;;;;;;;4679314;30;20230;-82
2021/09/20 12:15:13;;;;;;;1.60;1.50;;;;;;;;;;4696224;30;20305;-82
2021/09/20 12:17:59;;;;;;;1.70;1.60;;;;;;;;;;4696278;30;20309;-81
2021/09/20 12:20:35;;;;;;;1.80;1.65;;;;;;;;;;4696059;30;20214;-82
2021/09/20 12:23:05;;;;;;;2.20;2.08;;;;;;;;;;4696042;30;20241;-82
2021/09/20 12:25:40;;;;;;;1.77;1.67;;;;;;;;;;4696135;30;20714;-82
2021/09/20 12:28:23;;;;;;;1.38;1.27;;;;;;;;;;4695982;30;20236;-82
2021/09/20 12:31:03;;;;;;;1.70;1.60;;;;;;;;;;4696344;30;20250;-81
2021/09/20 12:33:32;;;;;;;1.73;1.63;;;;;;;;;;4696040;30;20218;-82
2021/09/20 12:35:59;;;;;;;2.50;2.30;;;;;;;;;;4695996;30;20229;-81
2021/09/20 12:38:31;;;;;;;1.73;1.63;;;;;;;;;;4695807;30;20740;-81
2021/09/20 12:41:10;;;;;;;2.20;2.10;;;;;;;;;;4695817;30;20242;-81
2021/09/20 12:43:39;;;;;;;2.17;1.67;;;;;;;;;;4696237;30;20210;-81
2021/09/20 12:46:22;;;;;;;1.75;1.60;;;;;;;;;;4690143;30;20226;-85
2021/09/20 12:48:55;;;;;;;1.80;1.70;;;;;;;;;;4681526;30;20742;-84
2021/09/20 12:51:44;;;;;;;1.70;1.60;;;;;;;;;;4716423;30;20224;-83
2021/09/20 12:54:22;;;;;;;1.60;1.50;;;;;;;;;;4705428;30;20261;-84
2021/09/20 12:56:52;;;;;;;1.60;1.50;;;;;;;;;;4691975;30;20310;-85
2021/09/20 12:59:35;;;;;;;1.83;1.73;;;;;;;;;;4681697;30;20242;-85
2021/09/20 13:02:13;;;;;;;1.48;1.38;;;;;;;;;;4682222;30;20203;-85
2021/09/20 13:04:43;;;;;;;1.42;1.35;;;;;;;;;;4697141;30;20213;-84
2021/09/20 13:07:13;;;;;;;1.60;1.50;;;;;;;;;;4694314;30;20240;-83
2021/09/20 13:09:55;;;;;;;1.48;1.38;;;;;;;;;;4692569;30;20679;-83
2021/09/20 13:12:24;;;;;;;1.40;1.30;;;;;;;;;;4702406;30;20211;-84
2021/09/20 13:14:56;;;;;;;1.65;1.58;;;;;;;;;;4702565;30;20211;-84
2021/09/20 13:17:38;;;;;;;1.50;1.40;;;;;;;;;;4702202;30;20234;-84
2021/09/20 13:20:12;;;;;;;2.10;1.90;;;;;;;;;;4701920;30;20223;-83
2021/09/20 13:23:35;;;;;;;1.50;1.40;;;;;;;;;;4702356;30;20187;-85
2021/09/20 13:26:08;;;;;;;1.55;1.45;;;;;;;;;;4702455;30;20207;-85
2021/09/20 13:28:42;;;;;;;1.10;1.10;;;;;;;;;;4701930;30;20231;-83
2021/09/20 13:31:14;;;;;;;1.80;1.52;;;;;;;;;;4701430;30;20218;-85
2021/09/20 13:33:44;;;;;;;1.55;1.40;;;;;;;;;;4692573;30;20219;-84
2021/09/20 13:36:18;;;;;;;1.92;1.83;;;;;;;;;;4684864;30;20570;-84
2021/09/20 13:38:46;;;;;;;1.40;1.30;;;;;;;;;;4684587;30;20246;-85
2021/09/20 13:41:26;;;;;;;1.98;1.88;;;;;;;;;;4685443;30;20209;-85
2021/09/20 13:44:01;;;;;;;1.77;1.67;;;;;;;;;;4688747;30;20207;-85
2021/09/20 13:46:30;;;;;;;2.03;1.52;;;;;;;;;;4686417;30;20233;-88
2021/09/20 13:49:05;;;;;;;1.80;1.70;;;;;;;;;;4685358;30;20242;-83
2021/09/20 13:51:39;;;;;;;1.40;1.30;;;;;;;;;;4689825;30;20234;-85
2021/09/20 13:54:14;;;;;;;1.52;1.45;;;;;;;;;;4701685;30;20272;-84
2021/09/20 13:57:14;;;;;;;1.23;1.20;;;;;;;;;;4701743;30;20225;-83
2021/09/20 13:59:56;;;;;;;1.17;1.17;;;;;;;;;;4701400;30;20222;-83
2021/09/20 14:02:56;;;;;;;1.75;1.65;;;;;;;;;;4701866;30;20203;-83
2021/09/20 14:05:34;;;;;;;1.70;1.60;;;;;;;;;;4684594;30;20203;-83
2021/09/20 14:08:16;;;;;;;1.88;1.48;;;;;;;;;;4684409;30;20609;-83
2021/09/20 14:11:26;;;;;;;1.40;1.30;;;;;;;;;;4684323;30;20211;-85
2021/09/20 14:13:53;;;;;;;1.10;1.10;;;;;;;;;;4684232;30;20218;-85
2021/09/20 14:16:36;;;;;;;1.15;1.13;;;;;;;;;;4684124;30;20225;-85
2021/09/20 14:19:30;;;;;;;1.20;1.10;;;;;;;;;;4684208;30;20242;-87
2021/09/20 14:22:29;;;;;;;1.63;1.00;;;;;;;;;;4689377;30;20223;-85
2021/09/20 14:24:58;;;;;;;1.08;1.08;;;;;;;;;;4701787;30;20335;-84
2021/09/20 14:27:26;;;;;;;1.17;1.17;;;;;;;;;;4692007;30;20329;-85
2021/09/20 14:29:53;;;;;;;1.50;1.40;;;;;;;;;;4682647;30;20204;-84
2021/09/20 14:32:21;;;;;;;1.65;1.55;;;;;;;;;;4682532;30;20749;-85
2021/09/20 14:34:50;;;;;;;1.40;1.30;;;;;;;;;;4697039;30;20210;-85
2021/09/20 14:37:17;;;;;;;1.60;1.50;;;;;;;;;;4698197;30;20235;-85
2021/09/20 14:39:45;;;;;;;1.25;1.15;;;;;;;;;;4698052;30;20257;-85
2021/09/20 14:42:13;;;;;;;1.35;1.25;;;;;;;;;;4699055;30;20205;-84
2021/09/20 14:44:40;;;;;;;1.30;1.20;;;;;;;;;;4698570;30;20593;-84
2021/09/20 14:47:08;;;;;;;1.30;1.20;;;;;;;;;;4697791;30;20242;-85
2021/09/20 14:49:36;;;;;;;1.35;1.20;;;;;;;;;;4697266;30;20222;-85
2021/09/20 14:52:05;;;;;;;1.05;1.05;;;;;;;;;;4697827;30;20226;-85
2021/09/20 14:54:32;;;;;;;1.70;1.60;;;;;;;;;;4698192;30;20377;-84
2021/09/20 14:57:00;;;;;;;1.02;1.02;;;;;;;;;;4697733;30;20620;-85
2021/09/20 14:59:27;;;;;;;1.40;1.30;;;;;;;;;;4697954;30;20655;-86
2021/09/20 15:01:55;;;;;;;1.40;1.30;;;;;;;;;;4697612;30;20229;-86
2021/09/20 15:04:22;;;;;;;1.05;1.05;;;;;;;;;;4697427;30;20218;-85